Terminal Aerodrome Forecast
Issued by NWS

Current Version | Previous Version | Text Only | Print | Product List | Glossary Off
Versions: 1 2 3 4 5 6 7 8 9 10 11 12 13 14 15 16

000
FTUS41 KPBZ 291131
TAFHLG
TAF
KHLG 291131Z 2912/3012 VRB03KT 5SM BR SCT250
     FM291400 20005KT P6SM SCT040
     FM300300 25005KT P6SM VCSH BKN035
     FM300700 29005KT P6SM SCT040=

USA.gov is the U.S. government's official web portal to all federal, state and local government web resources and services.